Time;durP1;ratioP1;P1;durP2;ratioP2;P2;SDS_P1;SDS_P2;PMS_P1;PMS_P2;Temp;Humidity;BMP_temperature;BMP_pressure;BME280_temperature;BME280_humidity;BME280_pressure;Samples;Min_cycle;Max_cycle;Signal;HPM_P1;HPM_P2
2021/03/11 03:46:12;;;;;;;3.55;2.97;;;9.00;39.90;;;;;;5549425;23;89397;-81
2021/03/11 03:48:58;;;;;;;3.05;2.85;;;9.00;40.70;;;;;;4965072;28;86571;-82
2021/03/11 03:51:30;;;;;;;3.03;2.83;;;8.90;41.10;;;;;;4952205;28;87287;-83
2021/03/11 03:54:14;;;;;;;3.00;2.80;;;8.90;42.00;;;;;;4960617;28;87715;-83
2021/03/11 03:56:43;;;;;;;4.60;3.13;;;8.70;42.70;;;;;;4952234;28;92099;-84
2021/03/11 03:59:12;;;;;;;3.58;3.28;;;8.60;43.50;;;;;;4971399;28;86743;-84
2021/03/11 04:01:40;;;;;;;3.22;2.92;;;8.40;43.80;;;;;;4967743;28;86972;-83
2021/03/11 04:04:07;;;;;;;3.00;2.80;;;8.30;45.10;;;;;;4954314;28;86915;-83
2021/03/11 04:06:34;;;;;;;3.28;2.97;;;8.20;44.50;;;;;;4962373;28;87129;-83
2021/03/11 04:09:07;;;;;;;3.03;2.83;;;8.10;45.00;;;;;;4970277;28;86874;-84
2021/03/11 04:11:34;;;;;;;3.55;3.10;;;8.10;45.20;;;;;;4969268;28;87369;-83
2021/03/11 04:14:01;;;;;;;5.97;3.92;;;8.10;44.90;;;;;;4971422;28;87868;-81
2021/03/11 04:16:28;;;;;;;3.03;2.83;;;8.10;44.70;;;;;;4968627;28;86963;-83
2021/03/11 04:18:57;;;;;;;3.85;2.95;;;8.00;44.80;;;;;;4966140;28;87401;-84
2021/03/11 04:21:23;;;;;;;2.92;2.70;;;8.00;44.80;;;;;;4963256;28;88606;-83
2021/03/11 04:23:50;;;;;;;3.42;3.13;;;8.00;45.40;;;;;;4955056;28;86662;-82
2021/03/11 04:26:16;;;;;;;3.42;2.92;;;8.00;45.50;;;;;;4966434;28;87014;-81
2021/03/11 04:28:42;;;;;;;3.30;2.78;;;8.00;44.70;;;;;;4960191;28;86687;-81
2021/03/11 04:31:09;;;;;;;3.47;2.95;;;8.00;44.60;;;;;;4958934;28;87046;-83
2021/03/11 04:33:35;;;;;;;4.57;2.78;;;8.10;45.00;;;;;;4965925;28;87630;-84
2021/03/11 04:36:02;;;;;;;4.80;3.10;;;8.10;44.00;;;;;;4977893;28;88961;-82
2021/03/11 04:38:28;;;;;;;3.47;3.10;;;8.20;44.00;;;;;;4983577;28;86902;-82
2021/03/11 04:40:54;;;;;;;3.42;3.13;;;8.20;44.30;;;;;;4986500;28;86899;-81
2021/03/11 04:43:20;;;;;;;2.95;2.30;;;8.30;44.10;;;;;;4986469;28;87864;-81
2021/03/11 04:45:48;;;;;;;3.63;3.13;;;8.30;43.40;;;;;;4984654;28;87090;-81
2021/03/11 04:48:14;;;;;;;3.47;3.13;;;8.40;43.60;;;;;;4969923;28;87076;-81
2021/03/11 04:50:42;;;;;;;2.42;2.28;;;8.40;42.70;;;;;;4965959;28;86736;-79
2021/03/11 04:53:09;;;;;;;3.58;3.08;;;8.40;43.20;;;;;;4967513;28;87993;-81
2021/03/11 04:55:35;;;;;;;3.17;2.97;;;8.40;43.80;;;;;;4960905;28;87151;-79
2021/03/11 04:58:02;;;;;;;3.95;3.13;;;8.40;45.80;;;;;;4969987;28;86761;-82
2021/03/11 05:00:28;;;;;;;3.10;2.80;;;8.40;44.90;;;;;;4963750;28;86268;-82
2021/03/11 05:02:56;;;;;;;3.05;2.85;;;8.40;43.50;;;;;;4958012;28;87088;-83
2021/03/11 05:05:37;;;;;;;4.97;3.58;;;8.40;44.30;;;;;;4970176;28;87256;-84
2021/03/11 05:08:06;;;;;;;3.05;2.42;;;8.30;45.30;;;;;;4961784;28;88132;-82
2021/03/11 05:10:33;;;;;;;3.50;3.20;;;8.30;44.60;;;;;;4970233;28;86594;-82
2021/03/11 05:12:59;;;;;;;3.08;2.88;;;8.30;45.30;;;;;;4969720;28;86908;-81
2021/03/11 05:15:25;;;;;;;3.90;2.90;;;8.30;43.90;;;;;;4976603;28;87131;-83
2021/03/11 05:17:51;;;;;;;3.08;2.88;;;8.30;43.80;;;;;;4957237;28;87244;-81
2021/03/11 05:20:18;;;;;;;3.55;2.95;;;8.30;44.20;;;;;;4971688;28;86739;-83
2021/03/11 05:22:43;;;;;;;2.83;2.63;;;8.30;44.10;;;;;;4961692;28;87191;-80
2021/03/11 05:25:10;;;;;;;3.45;3.15;;;8.30;43.30;;;;;;4970737;28;87951;-83
2021/03/11 05:27:37;;;;;;;3.05;2.85;;;8.40;43.10;;;;;;4966537;28;87076;-82
2021/03/11 05:30:05;;;;;;;3.10;2.90;;;8.50;43.40;;;;;;4966758;28;87000;-83
2021/03/11 05:32:30;;;;;;;2.70;2.50;;;8.50;43.50;;;;;;4970115;28;88186;-85
2021/03/11 05:34:57;;;;;;;3.33;3.13;;;;;;;;;;4960737;28;88395;-83
2021/03/11 05:37:22;;;;;;;3.78;3.08;;;8.60;42.40;;;;;;4962711;28;86670;-80
2021/03/11 05:39:49;;;;;;;3.15;2.95;;;8.60;43.00;;;;;;4968615;28;86980;-84
2021/03/11 05:42:18;;;;;;;3.63;2.70;;;8.60;42.50;;;;;;4957131;28;89359;-82
2021/03/11 05:44:44;;;;;;;4.85;2.92;;;8.60;43.50;;;;;;4976626;28;86944;-83
2021/03/11 05:47:13;;;;;;;4.60;3.40;;;8.70;42.90;;;;;;4961370;28;86881;-82
2021/03/11 05:49:42;;;;;;;4.70;3.08;;;8.80;44.20;;;;;;4956050;28;85518;-82
2021/03/11 05:52:09;;;;;;;3.75;2.97;;;8.80;44.00;;;;;;4949703;28;86467;-83
2021/03/11 05:54:37;;;;;;;4.28;3.42;;;8.90;44.90;;;;;;4947567;28;87339;-83
2021/03/11 05:57:04;;;;;;;3.38;3.08;;;8.90;45.30;;;;;;4961243;28;87983;-83
2021/03/11 05:59:31;;;;;;;3.90;3.50;;;8.80;45.20;;;;;;4942284;28;87869;-79
2021/03/11 06:02:03;;;;;;;5.72;3.47;;;8.80;44.80;;;;;;4938847;28;86743;-80
2021/03/11 06:04:29;;;;;;;4.03;3.65;;;8.80;45.20;;;;;;4949838;28;86849;-83
2021/03/11 06:06:54;;;;;;;3.97;3.00;;;8.80;46.30;;;;;;4946393;28;86944;-83
2021/03/11 06:09:21;;;;;;;3.40;3.10;;;8.80;45.60;;;;;;4944711;28;87612;-84
2021/03/11 06:11:49;;;;;;;3.60;3.30;;;8.90;45.40;;;;;;4944163;28;87592;-83
2021/03/11 06:14:15;;;;;;;3.42;3.13;;;9.00;43.90;;;;;;4943488;28;87267;-83
2021/03/11 06:16:53;;;;;;;5.32;2.83;;;9.00;44.40;;;;;;4941695;28;88012;-82
2021/03/11 06:19:19;;;;;;;5.97;3.00;;;9.10;41.40;;;;;;4944654;28;86969;-83
2021/03/11 06:21:45;;;;;;;5.15;3.72;;;9.20;43.20;;;;;;4942887;28;87994;-81
2021/03/11 06:24:11;;;;;;;9.60;5.93;;;9.30;43.90;;;;;;4944821;28;87903;-82
2021/03/11 06:26:37;;;;;;;8.43;6.20;;;9.40;44.20;;;;;;4931237;28;88423;-83
2021/03/11 06:29:03;;;;;;;7.15;5.40;;;9.40;44.60;;;;;;4927415;28;87923;-83
2021/03/11 06:31:31;;;;;;;5.68;4.85;;;9.40;45.00;;;;;;4928172;28;87341;-81
2021/03/11 06:33:59;;;;;;;6.40;4.47;;;9.30;45.90;;;;;;4936701;28;87314;-84
2021/03/11 06:36:27;;;;;;;5.82;4.90;;;9.30;47.70;;;;;;4946313;28;86897;-83
2021/03/11 06:38:53;;;;;;;6.57;4.90;;;9.20;49.30;;;;;;4944490;28;86476;-82
2021/03/11 06:41:19;;;;;;;4.93;3.88;;;9.10;49.70;;;;;;4945898;28;88316;-84
2021/03/11 06:43:58;;;;;;;6.47;4.63;;;9.10;49.40;;;;;;4945801;28;86792;-84
2021/03/11 06:46:26;;;;;;;5.72;3.65;;;9.10;46.70;;;;;;4953126;28;87966;-84
2021/03/11 06:49:09;;;;;;;5.10;4.55;;;9.10;49.40;;;;;;4965206;28;86873;-85
2021/03/11 06:51:35;;;;;;;7.47;4.18;;;9.10;47.20;;;;;;4942366;28;91809;-83
2021/03/11 06:54:01;;;;;;;4.22;3.38;;;9.10;47.10;;;;;;4962445;28;88220;-84
2021/03/11 06:56:28;;;;;;;4.05;3.38;;;9.10;45.20;;;;;;4964023;28;86837;-84
2021/03/11 06:59:08;;;;;;;6.28;3.40;;;9.10;45.60;;;;;;4943391;28;86776;-84
2021/03/11 07:01:35;;;;;;;6.90;3.38;;;9.10;45.30;;;;;;4960394;28;86992;-84
2021/03/11 07:04:02;;;;;;;4.53;3.30;;;9.10;46.20;;;;;;4967580;28;87431;-84
2021/03/11 07:06:31;;;;;;;5.75;3.63;;;9.10;45.90;;;;;;4958006;28;86929;-83
2021/03/11 07:08:58;;;;;;;4.60;2.88;;;9.10;47.20;;;;;;4965758;28;86770;-85
2021/03/11 07:11:25;;;;;;;4.47;4.07;;;9.10;46.60;;;;;;4967433;28;87925;-83
2021/03/11 07:13:54;;;;;;;4.70;3.50;;;9.00;46.40;;;;;;4965920;28;87734;-84
2021/03/11 07:16:22;;;;;;;5.85;3.40;;;9.00;46.10;;;;;;4967831;28;86669;-83
2021/03/11 07:18:49;;;;;;;5.13;3.35;;;9.00;45.90;;;;;;4953757;28;87176;-84
2021/03/11 07:21:38;;;;;;;4.05;2.67;;;9.10;46.40;;;;;;4966104;28;87728;-84
2021/03/11 07:24:04;;;;;;;6.20;3.13;;;9.00;44.60;;;;;;4965317;28;89859;-84
2021/03/11 07:26:30;;;;;;;3.78;3.00;;;9.00;45.30;;;;;;4961599;28;87071;-85
2021/03/11 07:29:19;;;;;;;3.10;2.80;;;9.00;45.40;;;;;;4959046;28;85895;-84
2021/03/11 07:31:57;;;;;;;3.20;2.75;;;9.00;44.00;;;;;;4954534;28;87409;-83
2021/03/11 07:34:28;;;;;;;3.28;2.95;;;9.00;44.60;;;;;;4965218;28;91979;-85
2021/03/11 07:36:57;;;;;;;;;;;9.00;44.90;;;;;;4965517;28;87880;-84
2021/03/11 07:39:39;;;;;;;3.67;3.30;;;9.20;44.30;;;;;;4968262;28;87054;-84
2021/03/11 07:42:07;;;;;;;3.80;2.88;;;9.20;44.10;;;;;;4964013;28;87648;-83
2021/03/11 07:44:34;;;;;;;2.75;2.22;;;9.30;43.60;;;;;;4964558;28;87639;-84
2021/03/11 07:47:00;;;;;;;3.88;2.92;;;9.30;44.40;;;;;;4951451;28;86588;-84
2021/03/11 07:49:27;;;;;;;4.20;2.40;;;9.50;42.80;;;;;;4956308;28;87077;-84
2021/03/11 07:51:54;;;;;;;4.47;2.80;;;9.70;41.20;;;;;;4957690;28;87624;-84
2021/03/11 07:54:21;;;;;;;2.58;2.38;;;9.80;42.00;;;;;;4955105;28;87871;-84
2021/03/11 07:56:50;;;;;;;2.85;2.65;;;10.00;41.40;;;;;;4961162;28;87023;-82
2021/03/11 07:59:17;;;;;;;2.42;2.22;;;10.10;41.10;;;;;;4961157;28;86791;-83
2021/03/11 08:01:55;;;;;;;3.35;2.72;;;10.10;41.30;;;;;;4957156;28;87717;-84
2021/03/11 08:04:27;;;;;;;2.70;2.50;;;10.30;41.50;;;;;;4963164;28;89070;-83
2021/03/11 08:07:22;;;;;;;2.88;2.67;;;10.40;41.30;;;;;;4955581;28;86979;-83
2021/03/11 08:09:51;;;;;;;4.72;2.67;;;10.70;41.30;;;;;;4961795;28;87002;-85
2021/03/11 08:12:29;;;;;;;4.72;1.90;;;10.80;42.10;;;;;;4970127;28;87060;-83
2021/03/11 08:14:57;;;;;;;2.88;2.70;;;11.00;41.90;;;;;;4961630;28;87068;-84
2021/03/11 08:17:39;;;;;;;2.83;2.63;;;11.10;42.00;;;;;;4967511;28;86841;-85
2021/03/11 08:20:29;;;;;;;2.70;2.50;;;11.30;42.10;;;;;;4956396;28;85449;-84
2021/03/11 08:22:57;;;;;;;2.40;2.00;;;11.50;42.50;;;;;;4939917;28;88445;-85
2021/03/11 08:25:38;;;;;;;2.72;2.53;;;11.70;42.80;;;;;;4959474;28;86997;-84
2021/03/11 08:28:09;;;;;;;3.90;3.03;;;11.90;42.30;;;;;;4965350;28;87909;-84
2021/03/11 08:30:38;;;;;;;3.80;3.45;;;12.30;42.40;;;;;;4956367;28;86907;-84
2021/03/11 08:33:09;;;;;;;4.60;3.90;;;12.50;41.80;;;;;;4965940;28;87392;-85
2021/03/11 08:35:34;;;;;;;4.43;3.90;;;12.80;41.80;;;;;;4969080;28;86943;-85
2021/03/11 08:38:01;;;;;;;3.95;3.58;;;13.00;41.20;;;;;;4965859;28;86791;-86
2021/03/11 08:40:37;;;;;;;5.47;3.80;;;13.00;40.50;;;;;;4962720;28;87057;-84
2021/03/11 08:43:03;;;;;;;5.72;4.40;;;13.10;41.20;;;;;;4965924;28;86742;-86
2021/03/11 08:45:35;;;;;;;4.80;3.50;;;13.20;41.40;;;;;;4969898;28;86645;-85
2021/03/11 08:48:21;;;;;;;4.57;3.53;;;12.80;42.10;;;;;;4943061;28;86929;-85
2021/03/11 08:50:49;;;;;;;3.10;2.90;;;12.60;43.60;;;;;;4948732;28;86926;-85
2021/03/11 08:53:38;;;;;;;2.95;2.75;;;12.50;44.40;;;;;;4930044;28;88028;-84
2021/03/11 08:56:16;;;;;;;3.08;2.80;;;12.50;45.00;;;;;;4928710;28;87868;-84
2021/03/11 08:59:09;;;;;;;2.75;2.58;;;12.40;45.50;;;;;;4947614;28;86925;-85
2021/03/11 09:01:42;;;;;;;1.30;1.20;;;12.50;45.70;;;;;;4943577;28;86849;-84
2021/03/11 09:04:33;;;;;;;2.38;2.28;;;12.50;46.20;;;;;;4938795;28;87286;-84
2021/03/11 09:07:00;;;;;;;2.53;2.33;;;12.60;46.00;;;;;;4938345;28;87332;-85
2021/03/11 09:09:42;;;;;;;6.32;3.20;;;12.50;46.80;;;;;;4944502;28;86342;-85
2021/03/11 09:12:21;;;;;;;2.58;2.38;;;12.60;46.70;;;;;;4945218;28;85618;-85
2021/03/11 09:14:49;;;;;;;2.47;2.22;;;12.70;47.50;;;;;;4941598;28;87239;-84
2021/03/11 09:17:17;;;;;;;2.30;2.20;;;12.80;47.50;;;;;;4944368;28;91234;-85
2021/03/11 09:19:47;;;;;;;3.85;2.63;;;12.80;47.40;;;;;;4935371;28;88065;-85
2021/03/11 09:22:30;;;;;;;4.03;2.45;;;13.00;48.50;;;;;;4945239;28;86689;-84
2021/03/11 09:25:05;;;;;;;3.88;2.38;;;13.20;48.80;;;;;;4945564;28;86951;-85
2021/03/11 09:27:32;;;;;;;3.30;2.63;;;13.60;48.50;;;;;;4949531;28;87079;-85
2021/03/11 09:30:00;;;;;;;2.70;2.40;;;13.90;48.10;;;;;;4946153;28;87083;-85
2021/03/11 09:32:30;;;;;;;3.78;2.63;;;14.40;47.10;;;;;;4949720;28;86846;-84
2021/03/11 09:35:01;;;;;;;2.33;2.22;;;14.60;48.20;;;;;;4937133;28;87047;-85
2021/03/11 09:37:50;;;;;;;2.47;2.38;;;15.10;47.40;;;;;;4944765;28;86818;-85
2021/03/11 09:40:42;;;;;;;5.47;2.50;;;15.40;46.10;;;;;;4964494;28;87042;-85
2021/03/11 09:43:14;;;;;;;2.50;2.30;;;15.80;46.50;;;;;;4940680;28;86917;-84
2021/03/11 09:45:44;;;;;;;2.40;2.30;;;16.10;45.50;;;;;;4943718;28;87507;-85
2021/03/11 09:48:12;;;;;;;2.80;2.60;;;15.90;45.80;;;;;;4959083;28;87189;-84
2021/03/11 09:50:40;;;;;;;3.03;2.70;;;15.40;46.70;;;;;;4955536;28;87063;-84
2021/03/11 09:53:06;;;;;;;2.95;2.85;;;15.60;46.80;;;;;;4964166;28;86894;-85
2021/03/11 09:55:32;;;;;;;2.40;2.30;;;15.70;46.20;;;;;;4951963;28;89828;-83
2021/03/11 09:57:58;;;;;;;2.55;2.40;;;16.00;45.80;;;;;;4967075;28;86899;-85
2021/03/11 10:00:24;;;;;;;2.70;2.50;;;16.40;46.30;;;;;;4969390;28;87047;-85
2021/03/11 10:02:53;;;;;;;2.60;2.50;;;17.10;45.30;;;;;;4963980;28;86366;-83
2021/03/11 10:05:20;;;;;;;2.60;2.40;;;17.80;43.30;;;;;;4966059;28;87032;-83
2021/03/11 10:07:57;;;;;;;4.28;2.50;;;18.60;42.00;;;;;;4968662;28;87417;-83
2021/03/11 10:10:26;;;;;;;2.63;2.20;;;18.70;40.70;;;;;;4967262;28;87793;-84
2021/03/11 10:12:52;;;;;;;3.17;2.75;;;17.90;42.20;;;;;;4959220;28;86605;-83
2021/03/11 10:15:18;;;;;;;2.40;2.30;;;17.10;44.20;;;;;;4969075;28;87410;-82
2021/03/11 10:17:47;;;;;;;2.45;2.35;;;16.20;44.20;;;;;;4960829;28;87255;-83
2021/03/11 10:20:24;;;;;;;2.45;2.35;;;15.70;45.10;;;;;;4953902;28;87084;-83
2021/03/11 10:22:50;;;;;;;2.70;2.60;;;15.40;45.60;;;;;;4965764;28;87074;-82
2021/03/11 10:25:17;;;;;;;2.85;2.10;;;15.40;45.90;;;;;;4968605;28;87087;-85
2021/03/11 10:27:45;;;;;;;2.58;2.33;;;15.20;45.00;;;;;;4955182;28;87468;-84
2021/03/11 10:30:20;;;;;;;4.38;2.63;;;15.00;45.40;;;;;;4968474;28;86910;-85
2021/03/11 10:32:57;;;;;;;2.50;2.30;;;14.90;45.30;;;;;;4954784;28;86886;-83
2021/03/11 10:35:29;;;;;;;2.30;2.10;;;14.70;45.40;;;;;;4963420;28;88137;-84
2021/03/11 10:38:12;;;;;;;4.20;2.50;;;14.80;45.60;;;;;;4966452;28;88987;-84
2021/03/11 10:40:38;;;;;;;2.40;2.20;;;14.90;44.60;;;;;;4952665;28;86703;-84
2021/03/11 10:43:18;;;;;;;2.58;2.40;;;15.00;45.80;;;;;;4958578;28;86615;-84
2021/03/11 10:45:44;;;;;;;2.72;2.53;;;14.90;44.50;;;;;;4956878;28;88578;-82
2021/03/11 10:48:11;;;;;;;3.80;2.55;;;14.90;44.70;;;;;;4987311;28;86985;-82
2021/03/11 10:50:39;;;;;;;3.65;2.63;;;15.00;44.50;;;;;;4971079;28;86552;-81
2021/03/11 10:53:36;;;;;;;4.28;2.70;;;15.30;44.40;;;;;;4970886;28;85897;-82
2021/03/11 10:56:09;;;;;;;4.07;2.50;;;15.30;44.50;;;;;;4972815;28;86767;-82
2021/03/11 10:58:34;;;;;;;2.65;2.45;;;15.40;44.50;;;;;;4977675;28;86709;-82
2021/03/11 11:01:14;;;;;;;4.03;2.65;;;15.60;43.70;;;;;;4972486;28;87934;-84
2021/03/11 11:03:41;;;;;;;2.78;2.47;;;16.00;43.30;;;;;;4961923;28;86974;-84
2021/03/11 11:06:07;;;;;;;2.95;2.40;;;16.20;43.40;;;;;;4960383;28;87605;-84
2021/03/11 11:08:42;;;;;;;2.88;2.67;;;16.40;42.80;;;;;;4967905;28;87082;-84
2021/03/11 11:11:08;;;;;;;3.20;3.00;;;16.40;43.10;;;;;;4961993;28;86852;-83
2021/03/11 11:13:33;;;;;;;3.00;2.70;;;16.40;43.50;;;;;;4949923;28;87054;-84
2021/03/11 11:15:59;;;;;;;2.95;2.40;;;16.50;43.10;;;;;;4958350;28;87584;-83
2021/03/11 11:18:25;;;;;;;3.40;2.80;;;16.40;43.20;;;;;;4958544;28;87563;-84
2021/03/11 11:20:51;;;;;;;3.03;2.80;;;16.20;44.10;;;;;;4964724;28;87074;-83
2021/03/11 11:23:17;;;;;;;3.00;2.80;;;16.10;43.80;;;;;;4965209;28;86909;-83
2021/03/11 11:25:43;;;;;;;3.05;2.85;;;16.00;44.10;;;;;;4964202;28;88078;-84
2021/03/11 11:28:08;;;;;;;3.47;3.28;;;16.00;43.50;;;;;;4961720;28;88097;-81
2021/03/11 11:30:34;;;;;;;3.10;2.90;;;16.00;44.20;;;;;;4965778;28;87412;-82
2021/03/11 11:33:00;;;;;;;3.55;2.80;;;16.10;43.80;;;;;;4966679;28;86566;-81
2021/03/11 11:35:26;;;;;;;2.80;2.60;;;16.30;43.80;;;;;;4958098;28;87701;-82
2021/03/11 11:37:52;;;;;;;2.80;2.67;;;16.60;43.10;;;;;;4964928;28;86992;-82
2021/03/11 11:40:18;;;;;;;2.70;2.50;;;17.00;42.30;;;;;;4962272;28;86993;-80
2021/03/11 11:42:44;;;;;;;3.03;2.63;;;17.70;41.20;;;;;;4959540;28;86195;-82
2021/03/11 11:45:11;;;;;;;3.08;2.75;;;19.50;39.00;;;;;;4961585;28;88088;-82
2021/03/11 11:47:37;;;;;;;4.25;2.70;;;19.40;39.50;;;;;;4950645;28;90424;-82
2021/03/11 11:50:07;;;;;;;3.05;2.75;;;20.30;37.90;;;;;;4946881;28;87866;-84
2021/03/11 11:52:34;;;;;;;2.63;2.42;;;20.40;37.70;;;;;;4972161;28;87730;-81
2021/03/11 11:54:59;;;;;;;2.50;2.40;;;20.50;37.10;;;;;;4975603;28;87388;-83
2021/03/11 11:57:25;;;;;;;3.60;2.60;;;20.20;37.70;;;;;;4966616;28;87269;-81
2021/03/11 11:59:51;;;;;;;2.92;2.72;;;20.30;37.90;;;;;;4966451;28;86957;-82
2021/03/11 12:02:17;;;;;;;2.90;2.70;;;20.50;38.00;;;;;;4969467;28;87064;-81
2021/03/11 12:04:43;;;;;;;2.63;2.50;;;19.70;40.50;;;;;;4970461;28;87088;-82
2021/03/11 12:07:09;;;;;;;2.50;2.40;;;19.40;43.50;;;;;;4969788;28;86479;-81
2021/03/11 12:09:35;;;;;;;3.08;2.88;;;19.50;44.60;;;;;;4968008;28;87068;-83
2021/03/11 12:12:01;;;;;;;2.80;2.60;;;19.50;44.70;;;;;;4974438;28;87153;-82
2021/03/11 12:14:27;;;;;;;2.60;2.50;;;19.80;44.90;;;;;;4971172;28;88243;-83
2021/03/11 12:16:53;;;;;;;2.70;2.50;;;20.00;45.00;;;;;;4963882;28;89017;-82
2021/03/11 12:19:19;;;;;;;3.17;2.97;;;20.10;44.90;;;;;;4971105;28;86943;-83
2021/03/11 12:21:45;;;;;;;3.00;2.80;;;19.80;45.40;;;;;;4965191;28;87164;-82
2021/03/11 12:24:11;;;;;;;2.60;2.50;;;19.50;46.60;;;;;;4964229;28;87237;-81
2021/03/11 12:26:37;;;;;;;2.70;2.60;;;19.60;45.90;;;;;;4959061;28;87379;-81
2021/03/11 12:29:03;;;;;;;2.60;2.50;;;19.70;46.00;;;;;;4961336;28;87419;-81
2021/03/11 12:31:29;;;;;;;2.60;2.50;;;19.70;46.20;;;;;;4969868;28;86063;-80
2021/03/11 12:33:56;;;;;;;2.65;2.55;;;19.50;46.50;;;;;;4969539;28;86920;-81
2021/03/11 12:36:22;;;;;;;2.90;2.70;;;19.30;46.90;;;;;;4965516;28;87743;-81
2021/03/11 12:38:48;;;;;;;2.75;2.60;;;19.10;47.20;;;;;;4969924;28;88041;-81
2021/03/11 12:41:14;;;;;;;2.97;2.80;;;19.10;47.40;;;;;;4965506;28;86711;-81
2021/03/11 12:43:40;;;;;;;2.90;2.80;;;19.40;47.30;;;;;;4969833;28;87184;-79
2021/03/11 12:46:06;;;;;;;2.50;2.40;;;19.40;46.60;;;;;;4968650;28;88688;-80
2021/03/11 12:48:33;;;;;;;2.58;2.38;;;19.40;46.90;;;;;;4967354;28;88055;-81
2021/03/11 12:50:59;;;;;;;3.13;2.92;;;19.60;47.00;;;;;;4968321;28;87115;-81
2021/03/11 12:53:25;;;;;;;2.95;2.80;;;19.60;46.30;;;;;;4964696;28;87125;-82
2021/03/11 12:55:51;;;;;;;3.75;3.08;;;19.30;46.80;;;;;;4967424;28;86986;-81
2021/03/11 12:58:17;;;;;;;2.90;2.80;;;19.30;47.30;;;;;;4969961;28;86923;-80
2021/03/11 13:00:43;;;;;;;2.70;2.60;;;19.10;47.40;;;;;;4970139;28;87061;-79
2021/03/11 13:03:08;;;;;;;2.70;2.50;;;19.10;47.50;;;;;;4970418;28;88134;-80
2021/03/11 13:05:34;;;;;;;2.95;2.75;;;19.00;47.40;;;;;;4958908;28;87782;-79
2021/03/11 13:08:00;;;;;;;2.83;2.65;;;19.00;47.50;;;;;;4971635;28;86565;-80
2021/03/11 13:10:26;;;;;;;2.88;2.67;;;19.10;47.80;;;;;;4969700;28;86912;-78
2021/03/11 13:12:52;;;;;;;2.97;2.70;;;18.80;47.90;;;;;;4970243;28;87899;-81
2021/03/11 13:15:19;;;;;;;2.85;2.65;;;18.90;48.40;;;;;;4964280;28;87298;-79
2021/03/11 13:17:47;;;;;;;2.50;2.30;;;19.20;48.10;;;;;;4967866;28;87012;-79
2021/03/11 13:20:13;;;;;;;2.55;2.45;;;19.30;47.00;;;;;;4969012;28;86216;-81
2021/03/11 13:22:39;;;;;;;2.78;2.67;;;19.60;46.40;;;;;;4961728;28;87088;-81
2021/03/11 13:25:05;;;;;;;2.97;2.78;;;20.00;45.80;;;;;;4965821;28;87307;-81
2021/03/11 13:27:31;;;;;;;2.58;2.42;;;20.50;44.70;;;;;;4959560;28;87843;-81
2021/03/11 13:29:57;;;;;;;2.92;2.72;;;20.70;44.80;;;;;;4968304;28;86973;-81
2021/03/11 13:32:22;;;;;;;3.05;2.72;;;20.80;44.50;;;;;;4961728;28;87509;-81
2021/03/11 13:34:48;;;;;;;2.70;2.50;;;21.00;44.50;;;;;;4965968;28;87065;-81
2021/03/11 13:37:14;;;;;;;2.60;2.50;;;21.20;44.50;;;;;;4952278;28;86893;-81
2021/03/11 13:39:39;;;;;;;2.50;2.40;;;21.40;43.80;;;;;;4968945;28;86950;-81
2021/03/11 13:42:05;;;;;;;3.38;3.17;;;21.50;43.60;;;;;;4965704;28;87227;-81
2021/03/11 13:44:31;;;;;;;2.70;2.60;;;21.50;44.30;;;;;;4963605;28;88681;-81
2021/03/11 13:46:57;;;;;;;2.63;2.53;;;21.30;45.50;;;;;;4965410;28;87053;-81
2021/03/11 13:49:23;;;;;;;2.70;2.60;;;20.80;44.10;;;;;;4951695;28;87273;-81
2021/03/11 13:51:48;;;;;;;3.22;2.92;;;20.80;44.50;;;;;;4965213;28;89320;-81
2021/03/11 13:54:14;;;;;;;3.00;2.60;;;20.90;44.60;;;;;;4969087;28;87118;-81
2021/03/11 13:56:40;;;;;;;2.60;2.40;;;20.90;44.50;;;;;;4968916;28;88769;-81
2021/03/11 13:59:06;;;;;;;2.80;2.60;;;20.90;44.20;;;;;;4951424;28;86728;-81
2021/03/11 14:01:31;;;;;;;2.85;2.75;;;20.90;44.40;;;;;;4969048;28;86894;-79
2021/03/11 14:03:57;;;;;;;2.90;2.70;;;20.70;44.80;;;;;;4962490;28;86850;-81
2021/03/11 14:06:24;;;;;;;2.50;2.40;;;20.50;45.20;;;;;;4959218;28;87070;-80
2021/03/11 14:08:50;;;;;;;3.33;3.00;;;20.50;45.30;;;;;;4967788;28;86199;-79
2021/03/11 14:11:16;;;;;;;2.97;2.78;;;20.30;45.50;;;;;;4968319;28;87297;-80
2021/03/11 14:13:41;;;;;;;2.50;2.40;;;20.20;46.00;;;;;;4954738;28;87138;-81
2021/03/11 14:16:08;;;;;;;2.95;2.75;;;20.00;45.80;;;;;;4965752;28;87836;-80
2021/03/11 14:18:34;;;;;;;3.50;3.00;;;19.90;46.10;;;;;;4957080;28;87029;-80
2021/03/11 14:21:00;;;;;;;3.03;2.75;;;19.90;46.00;;;;;;4962348;28;86861;-81
2021/03/11 14:23:26;;;;;;;2.90;2.70;;;19.70;46.50;;;;;;4966304;28;87407;-81
2021/03/11 14:25:52;;;;;;;2.45;2.30;;;19.80;46.40;;;;;;4964152;28;86939;-81
2021/03/11 14:28:18;;;;;;;2.65;2.47;;;19.80;46.60;;;;;;4963414;28;86880;-81
2021/03/11 14:30:43;;;;;;;3.88;2.45;;;19.80;46.80;;;;;;4943365;28;89549;-81
2021/03/11 14:33:10;;;;;;;2.60;2.50;;;19.90;46.30;;;;;;4964736;28;86819;-81
2021/03/11 14:35:37;;;;;;;2.80;2.60;;;19.60;46.40;;;;;;4955146;28;87176;-81
2021/03/11 14:38:02;;;;;;;3.10;2.90;;;19.60;46.40;;;;;;4965517;28;87038;-81
2021/03/11 14:40:28;;;;;;;2.50;2.40;;;19.40;47.00;;;;;;4961545;28;88669;-81
2021/03/11 14:42:54;;;;;;;3.35;2.40;;;19.30;47.00;;;;;;4966903;28;87834;-80
2021/03/11 14:45:20;;;;;;;2.50;2.30;;;19.20;47.20;;;;;;4950264;28;86850;-81
2021/03/11 14:47:45;;;;;;;3.08;2.88;;;19.10;47.60;;;;;;4939585;28;86315;-81
2021/03/11 14:50:12;;;;;;;2.78;2.58;;;19.10;47.30;;;;;;4961975;28;87202;-81
2021/03/11 14:52:38;;;;;;;3.13;2.85;;;19.00;47.50;;;;;;4959402;28;86945;-78
2021/03/11 14:55:07;;;;;;;2.40;2.25;;;19.00;46.60;;;;;;4965917;28;87189;-78
2021/03/11 14:57:33;;;;;;;3.05;2.50;;;19.00;47.10;;;;;;4946109;28;86874;-79
2021/03/11 14:59:59;;;;;;;2.67;2.47;;;18.90;47.50;;;;;;4963567;28;86911;-81
2021/03/11 15:02:24;;;;;;;2.78;2.65;;;19.00;47.70;;;;;;4948717;28;88609;-82
2021/03/11 15:04:51;;;;;;;2.83;2.63;;;19.10;47.00;;;;;;4962137;28;87901;-81
2021/03/11 15:07:16;;;;;;;2.85;2.40;;;19.20;46.90;;;;;;4964443;28;86913;-80
2021/03/11 15:09:42;;;;;;;2.10;2.00;;;19.20;47.30;;;;;;4937560;28;88673;-80
2021/03/11 15:12:08;;;;;;;2.65;2.55;;;19.40;47.50;;;;;;4958431;28;86960;-80
2021/03/11 15:14:34;;;;;;;2.85;2.65;;;19.30;47.50;;;;;;4947927;28;87211;-80
2021/03/11 15:17:00;;;;;;;3.13;2.40;;;19.30;46.70;;;;;;4966600;28;87052;-80
2021/03/11 15:19:27;;;;;;;2.40;2.30;;;19.10;47.40;;;;;;4959257;28;87945;-82
2021/03/11 15:21:53;;;;;;;2.47;2.28;;;19.10;47.00;;;;;;4971260;28;86980;-81
2021/03/11 15:24:19;;;;;;;2.22;2.13;;;19.20;47.70;;;;;;4958806;28;86775;-81
2021/03/11 15:26:45;;;;;;;2.40;2.30;;;19.20;47.30;;;;;;4963890;28;86263;-82
2021/03/11 15:29:11;;;;;;;2.42;2.33;;;19.10;47.20;;;;;;4970172;28;88489;-82
2021/03/11 15:31:36;;;;;;;2.50;2.40;;;19.10;47.40;;;;;;4968535;28;88975;-82
2021/03/11 15:34:02;;;;;;;2.40;2.30;;;19.00;47.30;;;;;;4947219;28;86764;-81
2021/03/11 15:36:28;;;;;;;2.10;2.00;;;18.90;47.00;;;;;;4962886;28;87038;-81
2021/03/11 15:38:54;;;;;;;2.00;1.90;;;18.70;47.50;;;;;;4966360;28;86760;-81
2021/03/11 15:41:20;;;;;;;2.17;2.08;;;18.70;47.80;;;;;;4968939;28;87058;-82
2021/03/11 15:43:45;;;;;;;2.30;2.20;;;18.60;48.70;;;;;;4963514;28;86962;-82
2021/03/11 15:46:11;;;;;;;2.10;2.00;;;18.40;48.60;;;;;;4965314;28;86215;-81
2021/03/11 15:48:38;;;;;;;2.47;2.38;;;18.10;49.80;;;;;;4956792;28;87710;-81
2021/03/11 15:51:05;;;;;;;3.17;2.55;;;17.80;51.20;;;;;;4948689;28;88439;-83
2021/03/11 15:53:32;;;;;;;2.88;2.35;;;17.60;51.50;;;;;;4963429;28;87817;-82
2021/03/11 15:55:58;;;;;;;2.58;2.40;;;17.50;52.60;;;;;;4961781;28;87119;-82
2021/03/11 15:58:25;;;;;;;2.47;2.38;;;17.50;52.30;;;;;;4955423;28;87786;-81
2021/03/11 16:00:50;;;;;;;2.20;2.10;;;17.40;52.90;;;;;;4947567;28;89548;-82
2021/03/11 16:03:17;;;;;;;2.15;2.05;;;17.30;53.00;;;;;;4962241;28;86958;-82
2021/03/11 16:05:44;;;;;;;2.17;2.08;;;17.20;52.70;;;;;;4962871;28;86946;-81
2021/03/11 16:08:11;;;;;;;2.38;2.20;;;17.20;52.80;;;;;;4944205;28;90407;-81
2021/03/11 16:10:38;;;;;;;2.50;2.30;;;17.20;53.50;;;;;;4969837;28;87087;-80
2021/03/11 16:13:04;;;;;;;2.30;2.20;;;17.10;54.20;;;;;;4973210;28;87304;-81
2021/03/11 16:15:30;;;;;;;3.13;2.80;;;17.10;54.10;;;;;;4970982;28;86878;-80
2021/03/11 16:17:56;;;;;;;2.85;2.60;;;17.10;53.10;;;;;;4948222;28;91450;-82
2021/03/11 16:20:22;;;;;;;2.72;2.53;;;17.00;53.10;;;;;;4945537;28;90440;-81
2021/03/11 16:22:47;;;;;;;2.15;1.85;;;16.90;52.60;;;;;;4968422;28;87278;-81
2021/03/11 16:25:13;;;;;;;2.20;2.10;;;16.80;56.10;;;;;;4962966;28;88951;-81
2021/03/11 16:27:39;;;;;;;1.92;1.83;;;16.60;58.60;;;;;;4968431;28;87615;-81
2021/03/11 16:30:09;;;;;;;1.85;1.75;;;16.30;59.30;;;;;;4966579;28;87987;-80
2021/03/11 16:32:42;;;;;;;2.20;2.10;;;16.10;60.40;;;;;;4965922;28;86761;-81
2021/03/11 16:35:09;;;;;;;2.25;2.15;;;15.90;60.50;;;;;;4970440;28;86137;-81
2021/03/11 16:37:36;;;;;;;1.40;1.30;;;15.70;61.50;;;;;;4967753;28;86959;-82
2021/03/11 16:40:03;;;;;;;2.30;2.20;;;15.60;63.20;;;;;;4963804;28;87065;-81
2021/03/11 16:42:29;;;;;;;3.45;2.85;;;15.50;63.40;;;;;;4968684;28;87839;-81